createdAt,value
2019-03-25T00:00:45.038Z,101320.19
2019-03-25T00:03:13.075Z,101310.02
2019-03-25T00:05:41.166Z,101303.03
2019-03-25T00:08:09.137Z,101292.47
2019-03-25T00:10:37.171Z,101291.22
2019-03-25T00:13:05.175Z,101275.14
2019-03-25T00:15:33.158Z,101277.27
2019-03-25T00:18:06.011Z,101270.92
2019-03-25T00:20:35.137Z,101067.75
2019-03-25T00:23:03.233Z,101258.06
2019-03-25T00:25:31.267Z,101254.68
2019-03-25T00:27:59.260Z,101243.53
2019-03-25T00:30:27.255Z,101237.28
2019-03-25T00:32:55.242Z,101232.78
2019-03-25T00:35:23.247Z,101231.33
2019-03-25T00:37:51.234Z,101227.09
2019-03-25T00:40:19.218Z,101218.02
2019-03-25T00:42:47.204Z,101217.57
2019-03-25T00:45:15.218Z,101165.84
2019-03-25T00:47:43.222Z,101194.78
2019-03-25T00:50:11.302Z,101191.16
2019-03-25T00:52:39.296Z,101183.65
2019-03-25T00:55:07.403Z,101171.56
2019-03-25T00:57:35.446Z,101172.20
2019-03-25T01:00:03.498Z,101166.19
2019-03-25T01:02:35.034Z,101157.48
2019-03-25T01:05:02.579Z,101147.72
2019-03-25T01:07:30.614Z,101137.86
2019-03-25T01:09:58.619Z,101133.17
2019-03-25T01:12:26.644Z,101132.27
2019-03-25T01:14:54.722Z,101126.34
2019-03-25T01:17:22.726Z,101116.94
2019-03-25T01:19:50.712Z,101113.78
2019-03-25T01:22:18.698Z,101115.55
2019-03-25T01:24:46.691Z,101098.60
2019-03-25T01:27:14.919Z,101099.11
2019-03-25T01:29:42.966Z,101087.95
2019-03-25T01:32:10.980Z,101086.23
2019-03-25T01:34:38.946Z,101085.13
2019-03-25T01:37:06.929Z,101075.48
2019-03-25T01:39:34.963Z,101084.28
2019-03-25T01:42:11.554Z,101071.16
2019-03-25T01:44:36.986Z,101073.23
2019-03-25T01:47:04.974Z,101062.66
2019-03-25T01:49:32.954Z,101063.02
2019-03-25T01:52:00.961Z,101049.23
2019-03-25T01:54:28.959Z,101046.19
2019-03-25T01:56:56.979Z,101049.46
2019-03-25T01:59:24.971Z,100941.78
2019-03-25T02:01:52.956Z,101040.77
2019-03-25T02:04:21.291Z,101042.80
2019-03-25T02:06:49.290Z,101052.47
2019-03-25T02:09:17.308Z,101040.91
2019-03-25T02:11:45.313Z,101048.08
2019-03-25T02:14:13.693Z,101050.22
2019-03-25T02:19:51.850Z,101041.73
2019-03-25T02:22:19.931Z,101030.61
2019-03-25T02:24:47.990Z,101030.36
2019-03-25T02:27:16.102Z,101045.56
2019-03-25T02:29:44.150Z,101041.22
2019-03-25T02:32:12.177Z,101034.06
2019-03-25T02:34:40.242Z,101030.58
2019-03-25T02:37:08.272Z,101030.64
2019-03-25T02:39:36.320Z,101022.52
2019-03-25T02:42:06.123Z,101024.22
2019-03-25T02:44:34.144Z,101024.44
2019-03-25T02:47:02.144Z,101025.39
2019-03-25T02:49:30.370Z,101011.86
2019-03-25T02:51:58.505Z,101017.14
2019-03-25T02:54:26.490Z,101020.41
2019-03-25T02:56:54.493Z,100853.58
2019-03-25T02:59:22.578Z,101020.47
2019-03-25T03:01:50.694Z,101017.60
2019-03-25T03:04:18.746Z,101015.66
2019-03-25T03:06:46.827Z,101007.81
2019-03-25T03:09:14.864Z,101001.03
2019-03-25T03:11:42.958Z,100868.91
2019-03-25T03:14:10.998Z,100998.93
2019-03-25T03:16:39.061Z,100992.84
2019-03-25T03:19:07.142Z,100993.38
2019-03-25T03:21:35.180Z,100990.84
2019-03-25T03:24:06.152Z,100986.81
2019-03-25T03:26:34.295Z,100987.03
2019-03-25T03:29:02.301Z,100990.64
2019-03-25T03:31:30.316Z,100979.80
2019-03-25T03:33:58.403Z,100981.75
2019-03-25T03:36:26.455Z,100970.87
2019-03-25T03:38:54.479Z,100975.50
2019-03-25T03:41:22.607Z,100978.25
2019-03-25T03:43:50.608Z,100979.14
2019-03-25T03:46:18.637Z,100973.17
2019-03-25T03:48:46.699Z,100984.67
2019-03-25T03:51:14.769Z,100937.05
2019-03-25T03:53:42.792Z,100990.27
2019-03-25T03:56:13.654Z,100987.10
2019-03-25T03:58:40.623Z,100980.33
2019-03-25T04:01:08.887Z,100968.45
2019-03-25T04:03:44.349Z,100969.23
2019-03-25T04:06:12.357Z,100956.22
2019-03-25T04:08:40.503Z,100976.05
2019-03-25T04:11:08.490Z,100978.18
2019-03-25T04:13:36.543Z,100985.42
2019-03-25T04:16:04.518Z,100991.40
2019-03-25T04:18:32.523Z,101002.01
2019-03-25T04:21:00.520Z,100994.20
2019-03-25T04:23:28.514Z,100990.47
2019-03-25T04:25:56.512Z,100995.88
2019-03-25T04:28:24.579Z,100989.94
2019-03-25T04:30:52.571Z,100978.14
2019-03-25T04:33:20.610Z,100989.17
2019-03-25T04:35:48.620Z,100984.58
2019-03-25T04:38:19.002Z,100984.44
2019-03-25T04:40:47.064Z,100980.78
2019-03-25T04:43:16.351Z,100973.88
2019-03-25T04:45:44.326Z,100972.97
2019-03-25T04:48:12.335Z,100976.37
2019-03-25T04:50:40.386Z,100980.52
2019-03-25T04:53:08.352Z,100979.91
2019-03-25T04:55:36.499Z,100987.73
2019-03-25T04:58:04.577Z,100982.98
2019-03-25T05:00:33.317Z,100988.20
2019-03-25T05:03:01.314Z,100989.09
2019-03-25T05:05:29.307Z,100983.48
2019-03-25T05:07:57.314Z,100982.91
2019-03-25T05:10:25.302Z,100984.88
2019-03-25T05:12:54.384Z,100962.11
2019-03-25T05:15:22.730Z,100786.11
2019-03-25T05:17:50.723Z,100977.49
2019-03-25T05:20:20.699Z,100975.34
2019-03-25T05:22:50.414Z,100972.33
2019-03-25T05:25:18.139Z,100969.88
2019-03-25T05:27:46.162Z,100972.05
2019-03-25T05:30:14.150Z,100971.77
2019-03-25T05:32:42.174Z,100970.13
2019-03-25T05:35:10.157Z,100967.98
2019-03-25T05:37:38.175Z,100966.91
2019-03-25T05:40:06.244Z,100967.67
2019-03-25T05:42:34.215Z,100970.48
2019-03-25T05:45:02.191Z,100964.61
2019-03-25T05:47:30.496Z,100943.94
2019-03-25T05:49:58.539Z,100978.25
2019-03-25T05:52:26.542Z,100976.44
2019-03-25T05:54:54.533Z,100993.37
2019-03-25T05:57:22.534Z,100985.41
2019-03-25T05:59:50.551Z,100980.84
2019-03-25T06:02:25.928Z,100988.14
2019-03-25T06:04:53.920Z,100978.14
2019-03-25T06:07:21.933Z,100974.68
2019-03-25T06:09:49.970Z,100980.14
2019-03-25T06:12:17.945Z,100974.19
2019-03-25T06:14:45.974Z,100973.93
2019-03-25T06:17:13.971Z,100967.52
2019-03-25T06:19:42.014Z,100813.14
2019-03-25T06:22:10.013Z,100966.13
2019-03-25T06:24:38.020Z,100976.05
2019-03-25T06:27:14.032Z,100974.17
2019-03-25T06:29:36.115Z,100980.87
2019-03-25T06:35:01.164Z,100984.59
2019-03-25T06:37:29.220Z,100988.63
2019-03-25T06:39:57.299Z,100987.81
2019-03-25T06:42:25.302Z,100980.95
2019-03-25T06:44:53.351Z,100989.34
2019-03-25T06:47:21.388Z,100973.72
2019-03-25T06:49:49.379Z,100963.55
2019-03-25T06:52:17.389Z,100977.45
2019-03-25T06:54:45.463Z,100984.61
2019-03-25T06:57:24.779Z,100997.23
2019-03-25T06:59:43.177Z,100994.73
2019-03-25T07:02:11.174Z,100993.11
2019-03-25T07:04:39.158Z,100988.24
2019-03-25T07:07:09.236Z,100908.37
2019-03-25T07:09:37.003Z,100994.00
2019-03-25T07:12:05.014Z,100993.77
2019-03-25T07:14:33.002Z,100991.38
2019-03-25T07:17:00.991Z,100990.77
2019-03-25T07:19:28.984Z,100938.67
2019-03-25T07:21:56.978Z,100989.47
2019-03-25T07:24:24.986Z,100990.63
2019-03-25T07:26:55.501Z,100990.64
2019-03-25T07:29:22.715Z,100990.94
2019-03-25T07:31:50.703Z,100992.07
2019-03-25T07:34:18.711Z,100857.11
2019-03-25T07:36:46.731Z,100993.16
2019-03-25T07:39:14.822Z,100999.83
2019-03-25T07:41:42.890Z,101006.61
2019-03-25T07:44:10.950Z,101006.80
2019-03-25T07:46:38.953Z,101012.67
2019-03-25T07:49:07.083Z,100987.13
2019-03-25T07:51:40.300Z,100846.77
2019-03-25T07:54:08.309Z,101025.38
2019-03-25T07:56:36.462Z,101028.08
2019-03-25T07:59:04.535Z,101023.22
2019-03-25T08:01:32.599Z,101031.83
2019-03-25T08:04:00.651Z,101048.12
2019-03-25T08:06:28.649Z,101039.70
2019-03-25T08:09:03.744Z,101045.00
2019-03-25T08:11:26.491Z,101047.93
2019-03-25T08:13:54.519Z,101041.02
2019-03-25T08:16:22.571Z,101036.00
2019-03-25T08:18:50.619Z,101047.55
2019-03-25T08:21:18.823Z,101045.53
2019-03-25T08:23:46.806Z,101055.64
2019-03-25T08:26:14.982Z,101058.81
2019-03-25T08:28:47.611Z,101061.05
2019-03-25T08:31:15.339Z,101069.15
2019-03-25T08:33:43.342Z,101067.46
2019-03-25T08:36:11.320Z,101068.27
2019-03-25T08:38:39.310Z,101071.39
2019-03-25T08:41:07.491Z,101079.92
2019-03-25T08:43:35.534Z,101088.08
2019-03-25T08:46:03.518Z,101091.63
2019-03-25T08:48:31.502Z,101093.02
2019-03-25T08:50:59.512Z,101100.23
2019-03-25T08:53:27.635Z,101113.23
2019-03-25T08:55:55.982Z,101107.42
2019-03-25T08:58:23.998Z,101118.23
2019-03-25T09:00:52.346Z,101115.45
2019-03-25T09:03:20.425Z,101121.27
2019-03-25T09:05:54.491Z,101117.30
2019-03-25T09:08:21.057Z,101129.79
2019-03-25T09:10:49.079Z,101083.84
2019-03-25T09:13:17.095Z,101134.72
2019-03-25T09:15:45.079Z,101130.64
2019-03-25T09:18:13.093Z,101135.66
2019-03-25T09:20:41.509Z,101136.05
2019-03-25T09:23:10.159Z,101143.73
2019-03-25T09:25:38.181Z,101149.10
2019-03-25T09:28:06.171Z,101150.83
2019-03-25T09:31:07.954Z,101091.13
2019-03-25T09:33:35.926Z,101163.78
2019-03-25T09:36:04.034Z,101157.22
2019-03-25T09:38:32.099Z,101166.16
2019-03-25T09:41:00.124Z,101128.63
2019-03-25T09:43:28.206Z,101166.20
2019-03-25T09:45:56.421Z,101173.44
2019-03-25T09:48:24.571Z,101172.27
2019-03-25T09:50:53.740Z,101185.47
2019-03-25T09:53:22.023Z,101179.45
2019-03-25T09:55:50.206Z,101185.42
2019-03-25T09:58:18.821Z,101178.25
2019-03-25T10:00:47.089Z,101188.78
2019-03-25T10:03:15.203Z,101180.26
2019-03-25T10:05:43.710Z,101175.88
2019-03-25T10:08:11.860Z,101182.45
2019-03-25T10:10:40.049Z,101181.20
2019-03-25T10:13:08.703Z,101193.69
2019-03-25T10:15:37.081Z,101189.31
2019-03-25T10:18:05.173Z,101189.77
2019-03-25T10:20:33.298Z,101185.48
2019-03-25T10:23:01.442Z,101184.05
2019-03-25T10:25:29.577Z,101194.33
2019-03-25T10:27:57.669Z,101196.33
2019-03-25T10:30:25.811Z,101200.84
2019-03-25T10:32:53.896Z,101192.89
2019-03-25T10:35:25.298Z,101200.92
2019-03-25T10:37:53.364Z,101203.15
2019-03-25T10:40:21.521Z,101209.44
2019-03-25T10:42:50.732Z,101196.23
2019-03-25T10:45:21.061Z,101213.33
2019-03-25T10:47:53.046Z,101216.45
2019-03-25T10:50:21.169Z,101226.59
2019-03-25T10:52:49.226Z,101228.67
2019-03-25T10:55:17.321Z,101234.03
2019-03-25T10:57:45.387Z,101031.41
2019-03-25T11:00:13.830Z,101232.31
2019-03-25T11:02:41.880Z,101235.77
2019-03-25T11:05:10.497Z,101233.49
2019-03-25T11:07:38.744Z,101200.95
2019-03-25T11:10:07.228Z,101229.72
2019-03-25T11:12:35.377Z,101103.58
2019-03-25T11:15:03.516Z,101232.02
2019-03-25T11:17:31.559Z,101235.44
2019-03-25T11:19:59.623Z,101241.67
2019-03-25T11:22:27.781Z,101098.23
2019-03-25T11:24:55.910Z,101228.56
2019-03-25T11:27:24.047Z,101241.52
2019-03-25T11:29:52.196Z,101224.94
2019-03-25T11:32:20.283Z,101140.27
2019-03-25T11:34:48.376Z,101276.25
2019-03-25T11:37:16.437Z,101282.30
2019-03-25T11:39:44.507Z,101284.72
2019-03-25T11:42:12.570Z,101294.37
2019-03-25T11:44:40.670Z,101184.31
2019-03-25T11:47:08.729Z,101316.16
2019-03-25T11:49:37.759Z,101309.77
2019-03-25T11:55:27.848Z,101311.84
2019-03-25T11:57:56.119Z,101308.02
2019-03-25T12:00:24.179Z,101299.99
2019-03-25T12:02:52.281Z,101309.73
2019-03-25T12:05:20.274Z,101306.45
2019-03-25T12:07:48.292Z,101304.76
2019-03-25T12:10:16.306Z,101291.61
2019-03-25T12:12:48.110Z,101290.24
2019-03-25T12:15:16.119Z,101285.42
2019-03-25T12:17:44.110Z,101294.11
2019-03-25T12:20:12.103Z,101291.36
2019-03-25T12:22:40.101Z,101303.87
2019-03-25T12:25:08.194Z,101311.06
2019-03-25T12:27:36.279Z,101262.16
2019-03-25T12:30:04.524Z,101324.31
2019-03-25T12:32:32.524Z,101325.45
2019-03-25T12:35:00.586Z,101319.62
2019-03-25T12:37:28.836Z,101316.27
2019-03-25T12:39:56.817Z,101323.03
2019-03-25T12:42:24.891Z,101331.92
2019-03-25T12:44:52.863Z,101330.73
2019-03-25T12:47:20.867Z,101329.06
2019-03-25T12:49:48.861Z,101333.72
2019-03-25T12:52:22.397Z,101336.39
2019-03-25T12:54:50.382Z,101348.13
2019-03-25T12:57:18.383Z,101369.25
2019-03-25T13:00:05.043Z,101387.16
2019-03-25T13:02:33.041Z,101384.53
2019-03-25T13:05:01.110Z,101388.55
2019-03-25T13:07:29.089Z,101397.22
2019-03-25T13:09:57.067Z,101393.42
2019-03-25T13:12:25.167Z,101397.44
2019-03-25T13:14:53.384Z,101396.08
2019-03-25T13:17:22.793Z,101401.79
2019-03-25T13:20:04.714Z,101400.01
2019-03-25T13:22:32.698Z,101401.91
2019-03-25T13:25:00.694Z,101401.02
2019-03-25T13:27:29.503Z,101413.45
2019-03-25T13:29:58.234Z,101423.67
2019-03-25T13:32:26.213Z,101419.66
2019-03-25T13:34:54.355Z,101318.37
2019-03-25T13:37:22.339Z,101425.88
2019-03-25T13:39:50.450Z,101314.39
2019-03-25T13:42:18.450Z,101432.55
2019-03-25T13:44:46.443Z,101448.95
2019-03-25T13:47:14.490Z,101434.33
2019-03-25T13:49:42.474Z,101444.53
2019-03-25T13:52:19.617Z,101445.91
2019-03-25T13:54:47.914Z,101450.78
2019-03-25T13:57:15.919Z,101456.94
2019-03-25T13:59:43.888Z,101460.11
2019-03-25T14:02:11.878Z,101452.55
2019-03-25T14:04:39.908Z,101456.98
2019-03-25T14:07:07.967Z,101468.11
2019-03-25T14:09:35.964Z,101468.10
2019-03-25T14:12:03.981Z,101464.58
2019-03-25T14:14:31.999Z,101464.13
2019-03-25T14:17:00.263Z,101468.51
2019-03-25T14:19:29.331Z,101295.19
2019-03-25T14:21:57.607Z,101454.79
2019-03-25T14:24:25.606Z,101487.66
2019-03-25T14:26:59.218Z,101493.00
2019-03-25T14:29:27.202Z,101494.81
2019-03-25T14:31:55.203Z,101494.39
2019-03-25T14:34:23.183Z,101500.08
2019-03-25T14:36:51.178Z,101503.20
2019-03-25T14:39:19.442Z,101508.56
2019-03-25T14:41:47.422Z,101512.14
2019-03-25T14:44:15.406Z,101513.89
2019-03-25T14:46:43.399Z,101521.00
2019-03-25T14:49:11.384Z,101514.80
2019-03-25T14:51:39.357Z,101523.72
2019-03-25T14:54:07.339Z,101524.13
2019-03-25T14:56:35.334Z,101525.47
2019-03-25T14:59:03.441Z,101530.39
2019-03-25T15:01:31.618Z,101540.19
2019-03-25T15:04:09.099Z,101546.84
2019-03-25T15:06:37.106Z,101551.69
2019-03-25T15:09:06.884Z,101557.94
2019-03-25T15:11:34.864Z,101557.96
2019-03-25T15:14:02.903Z,101563.69
2019-03-25T15:16:30.894Z,101559.31
2019-03-25T15:18:58.882Z,101427.67
2019-03-25T15:21:26.898Z,101569.45
2019-03-25T15:23:54.887Z,101583.70
2019-03-25T15:26:22.880Z,101596.12
2019-03-25T15:28:50.895Z,101591.32
2019-03-25T15:31:18.866Z,101606.37
2019-03-25T15:33:47.186Z,101590.88
2019-03-25T15:36:15.203Z,101614.44
2019-03-25T15:38:43.199Z,101624.69
2019-03-25T15:41:18.590Z,101630.47
2019-03-25T15:43:46.595Z,101639.38
2019-03-25T15:46:14.572Z,101646.46
2019-03-25T15:48:42.576Z,101656.28
2019-03-25T15:51:10.671Z,101632.27
2019-03-25T15:53:38.800Z,101671.42
2019-03-25T15:56:06.779Z,101676.28
2019-03-25T15:58:34.882Z,101629.39
2019-03-25T16:01:02.910Z,101687.87
2019-03-25T16:03:30.923Z,101694.48
2019-03-25T16:05:58.990Z,101700.59
2019-03-25T16:08:27.250Z,101700.63
2019-03-25T16:10:55.300Z,101708.60
2019-03-25T16:13:23.419Z,101717.03
2019-03-25T16:15:51.607Z,101726.48
2019-03-25T16:18:32.642Z,101727.94
2019-03-25T16:21:00.659Z,101714.96
2019-03-25T16:23:28.634Z,101747.05
2019-03-25T16:25:56.674Z,101753.23
2019-03-25T16:28:24.695Z,101754.81
2019-03-25T16:30:58.648Z,101755.31
2019-03-25T16:33:22.424Z,101774.25
2019-03-25T16:35:50.414Z,101767.76
2019-03-25T16:38:18.446Z,101777.21
2019-03-25T16:40:46.438Z,101790.30
2019-03-25T16:43:14.495Z,101793.85
2019-03-25T16:45:42.499Z,101793.22
2019-03-25T16:48:10.527Z,101800.91
2019-03-25T16:50:39.864Z,101807.20
2019-03-25T16:53:07.910Z,101798.90
2019-03-25T16:55:36.345Z,101804.98
2019-03-25T16:58:04.364Z,101807.30
2019-03-25T17:00:32.435Z,101814.30
2019-03-25T17:03:00.430Z,101814.42
2019-03-25T17:05:28.427Z,101818.15
2019-03-25T17:07:56.407Z,101738.33
2019-03-25T17:10:24.402Z,101834.50
2019-03-25T17:12:52.387Z,101844.53
2019-03-25T17:15:20.379Z,101726.94
2019-03-25T17:17:48.363Z,101863.55
2019-03-25T17:20:17.173Z,101740.47
2019-03-25T17:22:45.173Z,101867.52
2019-03-25T17:25:13.563Z,101866.70
2019-03-25T17:27:43.731Z,101867.87
2019-03-25T17:30:13.007Z,101874.91
2019-03-25T17:32:41.035Z,101874.80
2019-03-25T17:35:10.691Z,101878.00
2019-03-25T17:37:38.779Z,101851.77
2019-03-25T17:40:06.891Z,101892.34
2019-03-25T17:42:35.019Z,101897.11
2019-03-25T17:45:03.003Z,101909.05
2019-03-25T17:47:30.991Z,101921.35
2019-03-25T17:49:59.016Z,101933.08
2019-03-25T17:52:26.991Z,101928.20
2019-03-25T17:54:55.037Z,101927.34
2019-03-25T17:57:23.125Z,101934.73
2019-03-25T17:59:51.109Z,101951.70
2019-03-25T18:02:19.115Z,101961.72
2019-03-25T18:04:47.111Z,101967.00
2019-03-25T18:07:15.119Z,101970.14
2019-03-25T18:09:43.113Z,101885.70
2019-03-25T18:12:12.491Z,101997.48
2019-03-25T18:14:40.482Z,102006.36
2019-03-25T18:17:08.462Z,102012.05
2019-03-25T18:19:36.476Z,102015.13
2019-03-25T18:22:04.451Z,102023.19
2019-03-25T18:24:32.446Z,102021.99
2019-03-25T18:27:00.439Z,102031.77
2019-03-25T18:29:28.415Z,102032.88
2019-03-25T18:31:57.686Z,102037.57
2019-03-25T18:34:25.977Z,102034.42
2019-03-25T18:36:54.349Z,102043.22
2019-03-25T18:39:22.795Z,102039.66
2019-03-25T18:41:51.163Z,101986.95
2019-03-25T18:44:19.214Z,102047.41
2019-03-25T18:46:47.194Z,102059.14
2019-03-25T18:49:16.754Z,101969.37
2019-03-25T18:51:49.446Z,102064.34
2019-03-25T18:54:17.497Z,101999.97
2019-03-25T18:56:45.496Z,102073.59
2019-03-25T18:59:13.497Z,102078.84
2019-03-25T19:01:41.541Z,102079.07
2019-03-25T19:04:09.690Z,102086.45
2019-03-25T19:06:37.870Z,102088.63
2019-03-25T19:09:06.821Z,102086.56
2019-03-25T19:11:34.874Z,102089.98
2019-03-25T19:14:02.997Z,102093.73
2019-03-25T19:16:31.133Z,102095.14
2019-03-25T19:18:59.143Z,102100.55
2019-03-25T19:21:27.159Z,102101.84
2019-03-25T19:23:55.159Z,102094.89
2019-03-25T19:26:23.126Z,102098.12
2019-03-25T19:28:54.024Z,102096.98
2019-03-25T19:31:24.330Z,102108.05
2019-03-25T19:33:52.387Z,102111.39
2019-03-25T19:36:20.485Z,102120.27
2019-03-25T19:38:48.541Z,102122.56
2019-03-25T19:41:18.769Z,102128.94
2019-03-25T19:43:46.382Z,102132.50
2019-03-25T19:46:14.483Z,102142.75
2019-03-25T19:48:42.548Z,102137.50
2019-03-25T19:51:10.619Z,102141.98
2019-03-25T19:53:38.650Z,102153.95
2019-03-25T19:56:06.653Z,102152.69
2019-03-25T19:58:34.778Z,102150.94
2019-03-25T20:01:02.902Z,102147.78
2019-03-25T20:03:32.993Z,102154.02
2019-03-25T20:06:08.369Z,102158.02
2019-03-25T20:08:32.241Z,102136.58
2019-03-25T20:11:00.277Z,102149.05
2019-03-25T20:13:28.342Z,102152.08
2019-03-25T20:16:00.747Z,101980.73
2019-03-25T20:18:28.727Z,102147.21
2019-03-25T20:20:56.818Z,102142.75
2019-03-25T20:23:24.905Z,102144.48
2019-03-25T20:25:53.010Z,102145.70
2019-03-25T20:28:21.047Z,102152.02
2019-03-25T20:30:49.141Z,102015.05
2019-03-25T20:33:17.171Z,101986.92
2019-03-25T20:35:46.229Z,102158.11
2019-03-25T20:38:14.286Z,102154.14
2019-03-25T20:40:42.689Z,102161.28
2019-03-25T20:43:10.691Z,102157.75
2019-03-25T20:45:38.834Z,102161.46
2019-03-25T20:48:08.147Z,102168.16
2019-03-25T20:50:36.209Z,102182.27
2019-03-25T20:53:06.517Z,102177.61
2019-03-25T20:55:34.619Z,102186.09
2019-03-25T20:58:02.611Z,102200.60
2019-03-25T21:00:46.574Z,102198.80
2019-03-25T21:03:14.615Z,102205.03
2019-03-25T21:05:44.684Z,102203.66
2019-03-25T21:08:12.745Z,102205.89
2019-03-25T21:10:40.811Z,102202.37
2019-03-25T21:13:08.814Z,102212.77
2019-03-25T21:15:38.561Z,102226.83
2019-03-25T21:18:10.905Z,102228.55
2019-03-25T21:20:39.135Z,102235.14
2019-03-25T21:23:07.188Z,102235.03
2019-03-25T21:25:35.238Z,102237.69
2019-03-25T21:28:03.401Z,102245.42
2019-03-25T21:30:31.452Z,102244.92
2019-03-25T21:32:59.430Z,102252.63
2019-03-25T21:35:27.595Z,102259.11
2019-03-25T21:37:57.321Z,102254.30
2019-03-25T21:40:25.406Z,102249.11
2019-03-25T21:42:53.447Z,102248.05
2019-03-25T21:45:21.641Z,102245.08
2019-03-25T21:47:49.628Z,102242.89
2019-03-25T21:50:17.720Z,102065.05
2019-03-25T21:52:45.784Z,102024.11
2019-03-25T21:55:13.787Z,102252.42
2019-03-25T21:57:42.843Z,102256.17
2019-03-25T22:00:12.209Z,102253.30
2019-03-25T22:02:40.251Z,102249.47
2019-03-25T22:05:08.245Z,102248.05
2019-03-25T22:07:36.242Z,102253.81
2019-03-25T22:10:04.388Z,102260.20
2019-03-25T22:12:32.586Z,102262.62
2019-03-25T22:15:00.682Z,102258.69
2019-03-25T22:17:28.844Z,102259.05
2019-03-25T22:19:56.846Z,102257.99
2019-03-25T22:22:24.950Z,102258.67
2019-03-25T22:24:52.958Z,102256.67
2019-03-25T22:27:20.998Z,102261.24
2019-03-25T22:29:48.970Z,102257.66
2019-03-25T22:32:16.986Z,102252.92
2019-03-25T22:34:45.063Z,102257.09
2019-03-25T22:37:26.895Z,102250.69
2019-03-25T22:39:46.227Z,102253.30
2019-03-25T22:42:14.215Z,102257.59
2019-03-25T22:44:42.386Z,102260.74
2019-03-25T22:47:10.409Z,102252.94
2019-03-25T22:49:38.418Z,102262.89
2019-03-25T22:52:06.402Z,102253.84
2019-03-25T22:54:34.409Z,102250.85
2019-03-25T22:57:02.383Z,102250.80
2019-03-25T22:59:30.614Z,102254.42
2019-03-25T23:01:58.666Z,102260.13
2019-03-25T23:04:26.708Z,102265.09
2019-03-25T23:06:54.688Z,102272.00
2019-03-25T23:09:22.682Z,102265.02
2019-03-25T23:11:50.706Z,102268.48
2019-03-25T23:14:18.707Z,102277.67
2019-03-25T23:16:46.733Z,102274.33
2019-03-25T23:19:14.843Z,102265.05
2019-03-25T23:21:42.895Z,102265.58
2019-03-25T23:24:14.388Z,102262.06
2019-03-25T23:26:42.371Z,102272.73
2019-03-25T23:29:10.374Z,102278.39
2019-03-25T23:31:38.367Z,102277.67
2019-03-25T23:34:06.354Z,102281.47
2019-03-25T23:36:34.349Z,102287.80
2019-03-25T23:39:02.350Z,102291.28
2019-03-25T23:41:46.668Z,102298.33
2019-03-25T23:44:14.887Z,102294.80
2019-03-25T23:46:42.859Z,102303.33
2019-03-25T23:49:22.311Z,102301.75
2019-03-25T23:51:42.027Z,102300.80
2019-03-25T23:54:14.357Z,102299.45
2019-03-25T23:56:42.486Z,102308.98
2019-03-25T23:59:10.446Z,102300.84
